Wednesday, November 21, 2018, 5:49 AM EST
Back to Local

KBWI, Baltimore-washington International

Location: Glen Burnie, MD, United States Lat: 39.167
Local Time: 5:49 AM EST (10:49 GMT) Lon: -76.683
Time Zone: US/Eastern Elev: 147 ft

Show me the last for .
Show Decoded

2018-11-21 04:54 METAR KBWI 210954Z 22004KT 10SM CLR M01/M04 A3013 RMK AO2 SLP204 T10111044 =
2018-11-21 03:54 METAR KBWI 210854Z 22003KT 10SM CLR M02/M04 A3014 RMK AO2 SLP205 T10171039 58002
                 =
2018-11-21 02:54 METAR KBWI 210754Z 25004KT 10SM CLR 00/M04 A3014 RMK AO2 SLP205 T00001039 =
2018-11-21 01:54 METAR KBWI 210654Z 00000KT 10SM FEW046 02/M04 A3015 RMK AO2 SLP208 T00171044 =
2018-11-21 00:54 METAR KBWI 210554Z 25004KT 10SM FEW046 02/M04 A3014 RMK AO2 SLP207 T00221044
                 10061 20022 58000 =
2018-11-20 23:54 METAR KBWI 210454Z 26008KT 10SM BKN046 03/M04 A3014 RMK AO2 SLP207 T00331039
                 401110033 =
2018-11-20 22:54 METAR KBWI 210354Z 25007KT 10SM BKN046 05/M03 A3015 RMK AO2 SLP209 T00501033 =
2018-11-20 21:54 METAR KBWI 210254Z 30010KT 10SM BKN049 05/M04 A3014 RMK AO2 SLP207 T00501039
                 53009 =
2018-11-20 20:54 METAR KBWI 210154Z 28007KT 10SM BKN048 05/M03 A3013 RMK AO2 SLP204 T00501028 =
2018-11-20 19:54 METAR KBWI 210054Z 30011G18KT 10SM BKN050 06/M03 A3012 RMK AO2 SLP198 T00561033
                 =
2018-11-20 18:54 METAR KBWI 202354Z 30010G18KT 10SM BKN055 06/M01 A3011 RMK AO2 SLP197 T00611011
                 10111 20056 53031 =
2018-11-20 17:54 METAR KBWI 202254Z 28008KT 10SM BKN055 06/M02 A3008 RMK AO2 PK WND 29027/2156
                 SLP186 T00611017 =
2018-11-20 16:54 METAR KBWI 202154Z 29019G25KT 10SM BKN050 BKN085 07/M02 A3005 RMK AO2 SLP176
                 T00721017 =
2018-11-20 15:54 METAR KBWI 202054Z 29013G22KT 10SM SCT050 BKN080 BKN160 08/M02 A3002 RMK AO2 PK
                 WND 26026/2002 SLP167 T00831017 53020 =
2018-11-20 14:54 METAR KBWI 201954Z 29013KT 10SM SCT050 SCT085 SCT160 10/M01 A2999 RMK AO2 SLP156
                 ACSL S-NW T01001011 =
2018-11-20 13:54 METAR KBWI 201854Z 28013G19KT 10SM SCT050 SCT085 SCT160 11/00 A2997 RMK AO2 PK
                 WND 29028/1800 SLP148 ACSL ALQDS T01110000 =
2018-11-20 12:54 METAR KBWI 201754Z 28011G19KT 10SM FEW036 SCT055 BKN080 BKN160 09/01 A2996 RMK
                 AO2 PK WND 29028/1656 SLP147 ACSL SE-NW T00940006 10106 20089 51006 =
2018-11-20 11:54 METAR KBWI 201654Z 29016G23KT 10SM FEW055 BKN085 10/01 A2996 RMK AO2 PK WND
                 31027/1637 SLP146 VIRGA W ACSL W-OHD-NE T01000011 =
2018-11-20 10:54 METAR KBWI 201554Z 29011G19KT 10SM FEW065 BKN090 11/02 A2996 RMK AO2 SLP146 ACSL
                 W-NE T01060017 =
2018-11-20 09:54 METAR KBWI 201454Z 31015G22KT 10SM FEW032 SCT070 BKN095 09/03 A2994 RMK AO2
                 SLP140 ACSL W-N T00940028 53016 =
2018-11-20 08:54 METAR KBWI 201354Z VRB06KT 10SM BKN070 BKN100 09/06 A2992 RMK AO2 SLP133 ACSL
                 W-N T00890056 =
2018-11-20 07:54 METAR KBWI 201254Z 30005KT 9SM BKN065 BKN095 BKN160 BKN250 09/06 A2991 RMK AO2
                 SLP129 ACC OHD-E ACSL NW T00890061 =
2018-11-20 06:54 METAR KBWI 201154Z 31006KT 6SM HZ SCT060 BKN080 09/06 A2990 RMK AO2 SLP124 60000
                 T00890061 10089 20056 53013 =
2018-11-20 05:54 METAR KBWI 201054Z 00000KT 7SM SCT055 BKN080 BKN100 07/07 A2988 RMK AO2 SLP118
                 T00720067 =

Support USWX by starting your Amazon purchase here.